Time;durP1;ratioP1;P1;durP2;ratioP2;P2;SDS_P1;SDS_P2;PMS_P1;PMS_P2;Temp;Humidity;BMP_temperature;BMP_pressure;BME280_temperature;BME280_humidity;BME280_pressure;Samples;Min_cycle;Max_cycle;Signal;HPM_P1;HPM_P2
2021/07/18 00:02:05;;;;;;;117.13;59.20;;;;;;;;;;5069929;28;20067;-70
2021/07/18 00:04:30;;;;;;;122.93;56.78;;;;;;;;;;5069138;28;20463;-69
2021/07/18 00:06:55;;;;;;;105.05;56.15;;;;;;;;;;5070893;28;20082;-70
2021/07/18 00:09:21;;;;;;;111.82;57.60;;;;;;;;;;5069606;28;20486;-70
2021/07/18 00:11:46;;;;;;;112.25;56.28;;;;;;;;;;5069598;28;20024;-69
2021/07/18 00:14:11;;;;;;;109.10;55.78;;;;;;;;;;5068728;28;20033;-70
2021/07/18 00:16:37;;;;;;;107.47;53.63;;;;;;;;;;5069330;28;20032;-70
2021/07/18 00:19:03;;;;;;;112.25;54.55;;;;;;;;;;5070346;28;20528;-70
2021/07/18 00:21:28;;;;;;;98.82;53.47;;;;;;;;;;5068711;28;20040;-70
2021/07/18 00:23:54;;;;;;;119.47;59.58;;;;;;;;;;5068402;28;20033;-70
2021/07/18 00:26:20;;;;;;;95.70;50.03;;;;;;;;;;5066523;28;20039;-70
2021/07/18 00:28:45;;;;;;;93.78;52.22;;;;;;;;;;5069128;28;20036;-69
2021/07/18 00:31:10;;;;;;;96.38;53.10;;;;;;;;;;5067759;28;20417;-69
2021/07/18 00:33:36;;;;;;;94.65;50.50;;;;;;;;;;5070974;28;20023;-70
2021/07/18 00:36:01;;;;;;;78.30;45.67;;;;;;;;;;5067750;28;20032;-71
2021/07/18 00:38:27;;;;;;;105.90;52.05;;;;;;;;;;5068005;28;20055;-70
2021/07/18 00:40:52;;;;;;;84.80;46.33;;;;;;;;;;5068725;28;20025;-69
2021/07/18 00:43:17;;;;;;;90.97;50.85;;;;;;;;;;5068439;28;20020;-70
2021/07/18 00:45:42;;;;;;;90.78;49.65;;;;;;;;;;5069536;28;20021;-70
2021/07/18 00:48:08;;;;;;;76.68;46.63;;;;;;;;;;5068485;28;20517;-70
2021/07/18 00:50:33;;;;;;;94.97;51.90;;;;;;;;;;5068811;28;20059;-69
2021/07/18 00:52:59;;;;;;;85.38;45.97;;;;;;;;;;5058163;28;20037;-69
2021/07/18 00:55:24;;;;;;;80.57;45.10;;;;;;;;;;5068395;28;20093;-72
2021/07/18 00:57:50;;;;;;;76.75;44.53;;;;;;;;;;5070879;28;20057;-70
2021/07/18 01:00:16;;;;;;;84.40;44.55;;;;;;;;;;5073311;23;20101;-67
2021/07/18 01:02:42;;;;;;;71.28;43.97;;;;;;;;;;4996890;28;20547;-66
2021/07/18 01:05:08;;;;;;;89.97;48.67;;;;;;;;;;4969089;28;20034;-66
2021/07/18 01:07:34;;;;;;;80.35;42.22;;;;;;;;;;4984913;28;20042;-66
2021/07/18 01:09:59;;;;;;;76.50;41.83;;;;;;;;;;4974288;28;20019;-66
2021/07/18 01:12:25;;;;;;;71.20;41.70;;;;;;;;;;4969284;28;20097;-66
2021/07/18 01:14:50;;;;;;;66.78;40.08;;;;;;;;;;4969812;28;20042;-66
2021/07/18 01:17:15;;;;;;;67.53;38.83;;;;;;;;;;4952459;28;20037;-66
2021/07/18 01:19:41;;;;;;;57.92;37.10;;;;;;;;;;4969802;28;20266;-66
2021/07/18 01:22:06;;;;;;;69.50;39.47;;;;;;;;;;4978627;28;20018;-66
2021/07/18 01:24:32;;;;;;;58.70;36.85;;;;;;;;;;4985613;28;20050;-66
2021/07/18 01:26:57;;;;;;;51.25;32.30;;;;;;;;;;4988985;28;20030;-66
2021/07/18 01:29:23;;;;;;;57.13;36.15;;;;;;;;;;4989187;28;20500;-66
2021/07/18 01:31:48;;;;;;;58.00;35.65;;;;;;;;;;4989215;28;20443;-66
2021/07/18 01:34:14;;;;;;;64.88;35.72;;;;;;;;;;4988465;28;20081;-66
2021/07/18 01:36:39;;;;;;;56.38;34.30;;;;;;;;;;4990421;28;20042;-66
2021/07/18 01:39:06;;;;;;;48.53;31.73;;;;;;;;;;4970760;28;20717;-66
2021/07/18 01:41:31;;;;;;;56.58;33.85;;;;;;;;;;4988753;28;20298;-66
2021/07/18 01:43:56;;;;;;;78.85;38.03;;;;;;;;;;4970872;28;20128;-67
2021/07/18 01:46:22;;;;;;;63.73;35.73;;;;;;;;;;4988776;28;20029;-67
2021/07/18 01:48:50;;;;;;;75.28;41.70;;;;;;;;;;4990851;28;20651;-67
2021/07/18 01:51:20;;;;;;;78.88;42.00;;;;;;;;;;4988622;28;20038;-67
2021/07/18 01:53:45;;;;;;;67.38;38.38;;;;;;;;;;4987734;28;20041;-66
2021/07/18 01:56:10;;;;;;;79.93;38.88;;;;;;;;;;4991417;28;20042;-65
2021/07/18 01:58:35;;;;;;;74.23;40.40;;;;;;;;;;4995338;28;20122;-66
2021/07/18 02:01:00;;;;;;;67.32;40.72;;;;;;;;;;4996993;28;20261;-67
2021/07/18 02:03:26;;;;;;;68.07;38.07;;;;;;;;;;4977250;28;20125;-67
2021/07/18 02:05:51;;;;;;;69.53;37.67;;;;;;;;;;4995132;28;20275;-66
2021/07/18 02:08:17;;;;;;;76.80;39.38;;;;;;;;;;4994670;28;20086;-66
2021/07/18 02:10:44;;;;;;;63.40;37.22;;;;;;;;;;4995192;28;20030;-67
2021/07/18 02:13:13;;;;;;;68.35;37.00;;;;;;;;;;4994706;28;20649;-66
2021/07/18 02:15:38;;;;;;;58.95;33.78;;;;;;;;;;4997034;28;20026;-66
2021/07/18 02:18:04;;;;;;;61.13;33.33;;;;;;;;;;4995127;28;20485;-66
2021/07/18 02:20:29;;;;;;;64.50;36.45;;;;;;;;;;4976545;28;20034;-66
2021/07/18 02:22:54;;;;;;;50.80;31.73;;;;;;;;;;4993233;28;20039;-66
2021/07/18 02:25:21;;;;;;;34.10;25.50;;;;;;;;;;4994986;28;20028;-66
2021/07/18 02:27:46;;;;;;;44.00;28.13;;;;;;;;;;4996789;28;20033;-66
2021/07/18 02:30:13;;;;;;;44.90;27.20;;;;;;;;;;4995017;28;20057;-66
2021/07/18 02:32:38;;;;;;;50.15;30.27;;;;;;;;;;4994575;28;20038;-66
2021/07/18 02:35:04;;;;;;;39.40;24.02;;;;;;;;;;4994876;28;20482;-66
2021/07/18 02:37:30;;;;;;;46.13;28.40;;;;;;;;;;4994320;28;20072;-66
2021/07/18 02:39:55;;;;;;;43.17;28.08;;;;;;;;;;4996679;28;20034;-66
2021/07/18 02:42:20;;;;;;;48.60;28.37;;;;;;;;;;4994556;28;20034;-66
2021/07/18 02:44:45;;;;;;;39.85;24.50;;;;;;;;;;4994967;28;20281;-67
2021/07/18 02:47:10;;;;;;;37.10;23.40;;;;;;;;;;4994962;28;20033;-66
2021/07/18 02:49:36;;;;;;;35.70;23.77;;;;;;;;;;4994850;28;20620;-67
2021/07/18 02:52:03;;;;;;;36.63;25.70;;;;;;;;;;4996467;28;20317;-66
2021/07/18 02:54:28;;;;;;;44.10;24.77;;;;;;;;;;4994308;28;20277;-66
2021/07/18 02:56:54;;;;;;;41.60;27.77;;;;;;;;;;4973885;28;20109;-66
2021/07/18 02:59:19;;;;;;;32.30;20.50;;;;;;;;;;4975506;28;20860;-66
2021/07/18 03:01:51;;;;;;;33.10;22.53;;;;;;;;;;4970662;28;20281;-70
2021/07/18 03:04:16;;;;;;;35.45;22.23;;;;;;;;;;4957422;28;20262;-68
2021/07/18 03:06:42;;;;;;;42.58;23.95;;;;;;;;;;4976946;28;20461;-66
2021/07/18 03:09:07;;;;;;;26.90;19.27;;;;;;;;;;4988402;28;20049;-66
2021/07/18 03:11:32;;;;;;;32.65;21.67;;;;;;;;;;4991577;28;20049;-66
2021/07/18 03:13:57;;;;;;;27.90;19.35;;;;;;;;;;4991140;28;20030;-67
2021/07/18 03:16:22;;;;;;;29.23;17.27;;;;;;;;;;4991540;28;20037;-67
2021/07/18 03:18:48;;;;;;;25.60;17.90;;;;;;;;;;4993548;28;20254;-66
2021/07/18 03:21:13;;;;;;;28.27;18.67;;;;;;;;;;4991532;28;20278;-66
2021/07/18 03:23:38;;;;;;;23.20;16.48;;;;;;;;;;4990531;28;20675;-66
2021/07/18 03:26:03;;;;;;;25.40;15.30;;;;;;;;;;4991285;28;20535;-67
2021/07/18 03:28:29;;;;;;;19.10;13.93;;;;;;;;;;4991473;28;20615;-67
2021/07/18 03:30:56;;;;;;;24.75;15.38;;;;;;;;;;4993464;28;20026;-67
2021/07/18 03:33:21;;;;;;;20.88;15.10;;;;;;;;;;4990912;28;20030;-67
2021/07/18 03:35:47;;;;;;;18.90;13.60;;;;;;;;;;4991255;28;20403;-67
2021/07/18 03:38:12;;;;;;;19.50;16.35;;;;;;;;;;4969593;28;20274;-67
2021/07/18 03:40:37;;;;;;;21.00;14.60;;;;;;;;;;4981218;28;20049;-67
2021/07/18 03:43:02;;;;;;;20.52;16.25;;;;;;;;;;4992706;28;20268;-67
2021/07/18 03:45:27;;;;;;;18.00;14.68;;;;;;;;;;4991175;28;20057;-67
2021/07/18 03:47:53;;;;;;;19.23;13.35;;;;;;;;;;4990891;28;20034;-66
2021/07/18 03:50:18;;;;;;;21.98;12.57;;;;;;;;;;4991420;28;20030;-67
2021/07/18 03:52:44;;;;;;;19.52;9.57;;;;;;;;;;4990289;28;20057;-67
2021/07/18 03:55:09;;;;;;;11.95;9.63;;;;;;;;;;4990806;28;20100;-66
2021/07/18 03:57:35;;;;;;;14.50;10.68;;;;;;;;;;4992985;28;20122;-66
2021/07/18 04:00:00;;;;;;;14.60;10.15;;;;;;;;;;4990832;28;20466;-67
2021/07/18 04:02:25;;;;;;;12.02;9.07;;;;;;;;;;4990451;28;20461;-67
2021/07/18 04:04:51;;;;;;;21.87;13.33;;;;;;;;;;4990796;28;20041;-66
2021/07/18 04:07:16;;;;;;;22.10;13.45;;;;;;;;;;4990722;28;20656;-66
2021/07/18 04:09:41;;;;;;;26.55;15.80;;;;;;;;;;4974590;28;20084;-70
2021/07/18 04:12:07;;;;;;;37.67;19.65;;;;;;;;;;4990289;28;20126;-67
2021/07/18 04:14:33;;;;;;;26.85;18.27;;;;;;;;;;4990302;28;20041;-67
2021/07/18 04:16:58;;;;;;;25.58;16.58;;;;;;;;;;4973127;28;20113;-67
2021/07/18 04:19:23;;;;;;;34.45;20.10;;;;;;;;;;4989972;28;20094;-67
2021/07/18 04:21:49;;;;;;;36.13;20.08;;;;;;;;;;4992632;28;20029;-67
2021/07/18 04:24:14;;;;;;;49.15;22.30;;;;;;;;;;4993440;28;20030;-66
2021/07/18 04:26:39;;;;;;;32.47;19.97;;;;;;;;;;4976436;28;20046;-66
2021/07/18 04:29:04;;;;;;;33.92;23.13;;;;;;;;;;4972640;28;20293;-67
2021/07/18 04:31:30;;;;;;;37.07;21.63;;;;;;;;;;4990294;28;20038;-67
2021/07/18 04:33:55;;;;;;;36.17;21.45;;;;;;;;;;4991794;28;20254;-67
2021/07/18 04:36:20;;;;;;;22.55;17.08;;;;;;;;;;4990139;28;20035;-67
2021/07/18 04:38:45;;;;;;;23.13;16.77;;;;;;;;;;4988579;28;20125;-68
2021/07/18 04:41:11;;;;;;;25.57;16.90;;;;;;;;;;4990227;28;20677;-67
2021/07/18 04:43:36;;;;;;;23.88;16.15;;;;;;;;;;4972277;28;20332;-67
2021/07/18 04:46:01;;;;;;;27.17;17.80;;;;;;;;;;4974501;28;20062;-68
2021/07/18 04:48:26;;;;;;;24.63;16.90;;;;;;;;;;4972329;28;20058;-67
2021/07/18 04:50:51;;;;;;;25.60;15.90;;;;;;;;;;4990059;28;20273;-68
2021/07/18 04:53:17;;;;;;;28.63;17.48;;;;;;;;;;4968444;28;20350;-67
2021/07/18 04:55:42;;;;;;;27.77;16.50;;;;;;;;;;4986127;28;20137;-67
2021/07/18 04:58:07;;;;;;;23.40;15.77;;;;;;;;;;4991921;28;20265;-68
2021/07/18 05:00:32;;;;;;;29.90;16.08;;;;;;;;;;4989565;28;20775;-67
2021/07/18 05:02:58;;;;;;;29.85;14.82;;;;;;;;;;4989406;28;20495;-67
2021/07/18 05:05:23;;;;;;;20.02;14.07;;;;;;;;;;4989411;28;20633;-67
2021/07/18 05:07:49;;;;;;;22.83;13.67;;;;;;;;;;4971766;28;20051;-67
2021/07/18 05:10:17;;;;;;;32.95;14.07;;;;;;;;;;4989606;28;20261;-67
2021/07/18 05:12:42;;;;;;;29.95;15.32;;;;;;;;;;4973632;28;20018;-67
2021/07/18 05:15:08;;;;;;;19.08;15.20;;;;;;;;;;4989757;28;20038;-68
2021/07/18 05:17:33;;;;;;;19.80;13.55;;;;;;;;;;4989422;28;20137;-72
2021/07/18 05:19:58;;;;;;;24.57;13.77;;;;;;;;;;4972290;28;20030;-67
2021/07/18 05:22:24;;;;;;;22.17;14.27;;;;;;;;;;4989020;28;20253;-67
2021/07/18 05:24:50;;;;;;;18.40;13.82;;;;;;;;;;4990680;28;20038;-68
2021/07/18 05:27:15;;;;;;;19.50;11.93;;;;;;;;;;4971861;28;20439;-68
2021/07/18 05:29:40;;;;;;;18.10;11.30;;;;;;;;;;4989373;28;20035;-67
2021/07/18 05:32:06;;;;;;;16.60;11.40;;;;;;;;;;4988242;28;20065;-67
2021/07/18 05:34:32;;;;;;;15.65;12.80;;;;;;;;;;4971561;28;20242;-67
2021/07/18 05:36:57;;;;;;;19.58;11.85;;;;;;;;;;4991024;28;20674;-68
2021/07/18 05:39:22;;;;;;;17.77;10.02;;;;;;;;;;4988759;28;20089;-68
2021/07/18 05:41:47;;;;;;;14.47;10.07;;;;;;;;;;4989208;28;20026;-67
2021/07/18 05:44:13;;;;;;;22.20;11.60;;;;;;;;;;4988883;28;20270;-67
2021/07/18 05:46:38;;;;;;;23.70;10.98;;;;;;;;;;4989153;28;20274;-67
2021/07/18 05:49:03;;;;;;;17.83;10.93;;;;;;;;;;4990794;28;20088;-67
2021/07/18 05:51:28;;;;;;;14.20;10.57;;;;;;;;;;4989111;28;20182;-68
2021/07/18 05:53:53;;;;;;;14.73;10.03;;;;;;;;;;4987581;28;20388;-68
2021/07/18 05:56:19;;;;;;;12.63;10.87;;;;;;;;;;4988444;28;20643;-68
2021/07/18 05:58:44;;;;;;;16.45;10.18;;;;;;;;;;4989021;28;20265;-68
2021/07/18 06:01:09;;;;;;;13.97;8.63;;;;;;;;;;4990701;28;20030;-68
2021/07/18 06:03:35;;;;;;;12.40;8.18;;;;;;;;;;4988407;28;20261;-68
2021/07/18 06:06:00;;;;;;;12.38;8.30;;;;;;;;;;4988801;28;20038;-68
2021/07/18 06:08:25;;;;;;;10.00;8.55;;;;;;;;;;4988444;28;20736;-68
2021/07/18 06:10:50;;;;;;;10.77;6.47;;;;;;;;;;4988649;28;20638;-68
2021/07/18 06:13:15;;;;;;;10.50;6.45;;;;;;;;;;4988346;28;20273;-68
2021/07/18 06:15:41;;;;;;;7.28;5.80;;;;;;;;;;4990737;28;20015;-68
2021/07/18 06:18:06;;;;;;;12.40;5.90;;;;;;;;;;4970777;28;20038;-68
2021/07/18 06:20:31;;;;;;;10.02;5.85;;;;;;;;;;4988895;28;20069;-68
2021/07/18 06:22:56;;;;;;;10.57;6.55;;;;;;;;;;4987816;28;20126;-68
2021/07/18 06:25:22;;;;;;;8.52;6.97;;;;;;;;;;4993728;28;20025;-67
2021/07/18 06:27:47;;;;;;;9.20;6.07;;;;;;;;;;4976950;28;20098;-68
2021/07/18 06:30:13;;;;;;;6.40;5.28;;;;;;;;;;4951969;28;20059;-67
2021/07/18 06:32:39;;;;;;;9.57;5.60;;;;;;;;;;4968843;28;20031;-67
2021/07/18 06:35:04;;;;;;;9.00;5.28;;;;;;;;;;4969345;28;20053;-68
2021/07/18 06:37:29;;;;;;;9.15;5.10;;;;;;;;;;4969196;28;20060;-68
2021/07/18 06:39:55;;;;;;;11.38;5.25;;;;;;;;;;4992906;28;20011;-68
2021/07/18 06:42:20;;;;;;;8.43;5.18;;;;;;;;;;4983024;28;20055;-68
2021/07/18 06:44:46;;;;;;;6.40;5.15;;;;;;;;;;4992460;28;20033;-68
2021/07/18 06:47:11;;;;;;;6.13;5.10;;;;;;;;;;4992174;28;20075;-67
2021/07/18 06:49:36;;;;;;;13.50;5.47;;;;;;;;;;4992274;28;20026;-67
2021/07/18 06:52:01;;;;;;;10.97;5.30;;;;;;;;;;4994149;28;20663;-69
2021/07/18 06:54:27;;;;;;;10.13;5.20;;;;;;;;;;4991319;28;20325;-67
2021/07/18 06:56:52;;;;;;;10.38;4.72;;;;;;;;;;4991960;28;20074;-67
2021/07/18 06:59:17;;;;;;;8.07;4.90;;;;;;;;;;4992044;28;20026;-67
2021/07/18 07:01:43;;;;;;;7.67;4.83;;;;;;;;;;4992368;28;20112;-67
2021/07/18 07:04:08;;;;;;;10.02;4.63;;;;;;;;;;4976058;28;20297;-66
2021/07/18 07:06:33;;;;;;;5.68;4.53;;;;;;;;;;4991920;28;20026;-67
2021/07/18 07:08:58;;;;;;;8.88;4.60;;;;;;;;;;4991371;28;20070;-67
2021/07/18 07:11:24;;;;;;;11.85;4.43;;;;;;;;;;4994298;28;20035;-67
2021/07/18 07:13:50;;;;;;;10.57;4.25;;;;;;;;;;4971690;28;20058;-67
2021/07/18 07:16:15;;;;;;;7.30;4.85;;;;;;;;;;4972101;28;20031;-67
2021/07/18 07:18:41;;;;;;;6.70;4.93;;;;;;;;;;4974132;28;20019;-66
2021/07/18 07:21:06;;;;;;;6.78;5.03;;;;;;;;;;4972468;28;20126;-66
2021/07/18 07:23:32;;;;;;;7.57;4.82;;;;;;;;;;4974338;28;20023;-66
2021/07/18 07:25:59;;;;;;;8.13;4.82;;;;;;;;;;4992907;28;20043;-67
2021/07/18 07:28:24;;;;;;;5.55;4.35;;;;;;;;;;5010843;28;20072;-66
2021/07/18 07:30:51;;;;;;;8.40;4.57;;;;;;;;;;5012795;28;20018;-66
2021/07/18 07:33:17;;;;;;;9.60;4.38;;;;;;;;;;5010556;28;20277;-67
2021/07/18 07:35:42;;;;;;;7.70;4.50;;;;;;;;;;4993353;28;20549;-66
2021/07/18 07:38:07;;;;;;;7.03;4.93;;;;;;;;;;5010999;28;20307;-67
2021/07/18 07:40:32;;;;;;;6.68;4.60;;;;;;;;;;4992088;28;20327;-70
2021/07/18 07:42:58;;;;;;;7.15;4.43;;;;;;;;;;4992693;28;20010;-70
2021/07/18 07:45:23;;;;;;;7.47;4.00;;;;;;;;;;4991320;28;20046;-70
2021/07/18 07:47:48;;;;;;;7.43;4.90;;;;;;;;;;4991040;28;20104;-70
2021/07/18 07:50:14;;;;;;;10.15;4.85;;;;;;;;;;4991265;28;20057;-70
2021/07/18 07:52:39;;;;;;;10.35;4.57;;;;;;;;;;4990656;28;20476;-70
2021/07/18 07:55:05;;;;;;;7.65;4.88;;;;;;;;;;4994127;28;20464;-70
2021/07/18 07:57:30;;;;;;;7.32;5.05;;;;;;;;;;4981838;28;20039;-72
2021/07/18 07:59:56;;;;;;;6.32;4.68;;;;;;;;;;4978504;28;20042;-64
2021/07/18 08:02:21;;;;;;;6.68;4.63;;;;;;;;;;4990122;28;20573;-68
2021/07/18 08:04:46;;;;;;;8.10;5.20;;;;;;;;;;4990983;28;20765;-63
2021/07/18 08:07:11;;;;;;;8.02;5.22;;;;;;;;;;4992919;28;20018;-66
2021/07/18 08:09:37;;;;;;;12.70;4.97;;;;;;;;;;4990517;28;20050;-67
2021/07/18 08:12:02;;;;;;;7.72;4.80;;;;;;;;;;4990334;28;20134;-64
2021/07/18 08:14:27;;;;;;;5.28;4.78;;;;;;;;;;4990225;28;20045;-65
2021/07/18 08:16:53;;;;;;;7.07;5.25;;;;;;;;;;4990652;28;20030;-63
2021/07/18 08:19:18;;;;;;;11.60;9.43;;;;;;;;;;4991124;28;20022;-73
2021/07/18 08:21:43;;;;;;;13.20;8.23;;;;;;;;;;4992731;28;20412;-70
2021/07/18 08:24:09;;;;;;;11.17;5.67;;;;;;;;;;4971999;28;20332;-66
2021/07/18 08:26:34;;;;;;;5.75;5.05;;;;;;;;;;4990094;28;20274;-70
2021/07/18 08:29:00;;;;;;;6.05;5.13;;;;;;;;;;4990354;28;20039;-68
2021/07/18 08:31:25;;;;;;;8.07;5.60;;;;;;;;;;4990625;28;20018;-64
2021/07/18 08:33:52;;;;;;;8.02;5.68;;;;;;;;;;4991677;28;20029;-62
2021/07/18 08:36:17;;;;;;;6.78;5.22;;;;;;;;;;4990238;28;20136;-63
2021/07/18 08:38:43;;;;;;;9.30;5.50;;;;;;;;;;4989667;28;20736;-63
2021/07/18 08:41:08;;;;;;;8.70;5.27;;;;;;;;;;4994085;28;20289;-65
2021/07/18 08:43:33;;;;;;;9.93;4.72;;;;;;;;;;4971394;28;20362;-66
2021/07/18 08:45:59;;;;;;;11.20;6.25;;;;;;;;;;4973123;28;20033;-62
2021/07/18 08:48:24;;;;;;;8.60;5.95;;;;;;;;;;4970417;28;20035;-62
2021/07/18 08:50:50;;;;;;;10.00;5.80;;;;;;;;;;4970758;28;20405;-69
2021/07/18 08:53:15;;;;;;;7.85;5.60;;;;;;;;;;4970245;28;20271;-79
2021/07/18 08:55:40;;;;;;;7.82;6.00;;;;;;;;;;4986457;28;20046;-67
2021/07/18 08:58:06;;;;;;;7.95;5.38;;;;;;;;;;4991470;28;20531;-66
2021/07/18 09:00:31;;;;;;;9.35;6.57;;;;;;;;;;4989515;28;20553;-67
2021/07/18 09:02:56;;;;;;;8.57;6.00;;;;;;;;;;4971928;28;20034;-64
2021/07/18 09:05:22;;;;;;;12.98;6.28;;;;;;;;;;4989674;28;20044;-65
2021/07/18 09:07:48;;;;;;;7.15;6.10;;;;;;;;;;4989734;28;20034;-68
2021/07/18 09:10:15;;;;;;;6.68;6.03;;;;;;;;;;4988960;28;20048;-62
2021/07/18 09:12:40;;;;;;;8.48;5.60;;;;;;;;;;4990816;28;20555;-70
2021/07/18 09:15:06;;;;;;;7.68;5.38;;;;;;;;;;4989394;28;20121;-69
2021/07/18 09:17:33;;;;;;;6.85;5.60;;;;;;;;;;4989395;28;20054;-66
2021/07/18 09:20:10;;;;;;;10.43;4.88;;;;;;;;;;4972010;28;20488;-71
2021/07/18 09:22:35;;;;;;;7.25;5.65;;;;;;;;;;4971463;28;20030;-70
2021/07/18 09:25:01;;;;;;;8.40;6.07;;;;;;;;;;4975754;28;20026;-68
2021/07/18 09:27:26;;;;;;;7.18;6.00;;;;;;;;;;4981321;28;20286;-65
2021/07/18 09:29:51;;;;;;;12.90;5.70;;;;;;;;;;4969763;28;20054;-73
2021/07/18 09:32:16;;;;;;;9.30;6.00;;;;;;;;;;4952229;28;20033;-66
2021/07/18 09:34:44;;;;;;;8.48;6.57;;;;;;;;;;4970500;28;20257;-79
2021/07/18 09:37:11;;;;;;;9.85;6.65;;;;;;;;;;4971589;28;20495;-67
2021/07/18 09:39:37;;;;;;;12.15;5.90;;;;;;;;;;4955446;28;20039;-67
2021/07/18 09:42:02;;;;;;;7.60;6.82;;;;;;;;;;4987756;28;20045;-64
2021/07/18 09:44:38;;;;;;;8.48;6.72;;;;;;;;;;4988668;28;20038;-66
2021/07/18 09:47:03;;;;;;;7.55;6.50;;;;;;;;;;4988958;28;20026;-67
2021/07/18 09:49:30;;;;;;;14.77;6.60;;;;;;;;;;4988928;28;20451;-63
2021/07/18 09:52:15;;;;;;;7.60;6.50;;;;;;;;;;4990844;28;20331;-66
2021/07/18 09:54:41;;;;;;;10.57;6.60;;;;;;;;;;4988721;28;20034;-64
2021/07/18 09:57:08;;;;;;;10.93;7.30;;;;;;;;;;4988633;28;20503;-65
2021/07/18 09:59:33;;;;;;;8.18;6.85;;;;;;;;;;4989147;28;20093;-71
2021/07/18 10:01:59;;;;;;;7.32;6.35;;;;;;;;;;4988945;28;20038;-66
2021/07/18 10:04:24;;;;;;;10.05;6.68;;;;;;;;;;4988110;28;20015;-64
2021/07/18 10:07:03;;;;;;;9.70;8.00;;;;;;;;;;4990704;28;20091;-64
2021/07/18 10:09:28;;;;;;;9.35;6.72;;;;;;;;;;4988396;28;20367;-67
2021/07/18 10:11:54;;;;;;;10.87;7.87;;;;;;;;;;4987539;28;20051;-65
2021/07/18 10:14:19;;;;;;;10.23;7.87;;;;;;;;;;4968941;28;20281;-64
2021/07/18 10:16:44;;;;;;;8.45;7.65;;;;;;;;;;4969772;28;20294;-68
2021/07/18 10:19:09;;;;;;;8.93;8.07;;;;;;;;;;4975196;28;20027;-67
2021/07/18 10:21:36;;;;;;;13.02;8.30;;;;;;;;;;4973538;28;20314;-73
2021/07/18 10:24:02;;;;;;;10.98;8.57;;;;;;;;;;4972755;28;20082;-67
2021/07/18 10:26:30;;;;;;;10.85;9.07;;;;;;;;;;4986937;28;20397;-68
2021/07/18 10:28:55;;;;;;;10.23;9.10;;;;;;;;;;4992458;28;20500;-68
2021/07/18 10:31:32;;;;;;;11.25;10.15;;;;;;;;;;4992514;28;20065;-69
2021/07/18 10:33:59;;;;;;;11.65;10.07;;;;;;;;;;4994358;28;20014;-70
2021/07/18 10:36:25;;;;;;;12.60;11.38;;;;;;;;;;4992495;28;20030;-68
2021/07/18 10:38:51;;;;;;;12.25;11.15;;;;;;;;;;4992459;28;20496;-76
2021/07/18 10:41:16;;;;;;;12.70;11.38;;;;;;;;;;4995980;28;20030;-68
2021/07/18 10:43:48;;;;;;;14.05;12.85;;;;;;;;;;4979667;28;20513;-68
2021/07/18 10:46:16;;;;;;;18.33;13.75;;;;;;;;;;4974619;28;20484;-68
2021/07/18 10:48:52;;;;;;;43.33;20.40;;;;;;;;;;4973343;28;20054;-58
2021/07/18 10:51:18;;;;;;;32.40;24.63;;;;;;;;;;4972845;28;20046;-60
2021/07/18 10:53:44;;;;;;;51.15;28.08;;;;;;;;;;4972249;28;20559;-60
2021/07/18 10:56:09;;;;;;;52.28;32.28;;;;;;;;;;4988389;28;20027;-65
2021/07/18 10:58:37;;;;;;;53.10;32.15;;;;;;;;;;4971378;28;20492;-65
2021/07/18 11:01:02;;;;;;;62.60;36.10;;;;;;;;;;4974409;28;20034;-65
2021/07/18 11:03:35;;;;;;;52.33;32.30;;;;;;;;;;4971888;28;20035;-65
2021/07/18 11:06:22;;;;;;;52.95;34.35;;;;;;;;;;4972534;28;20464;-65
2021/07/18 11:09:05;;;;;;;78.75;44.17;;;;;;;;;;4972586;28;20097;-65
2021/07/18 11:11:36;;;;;;;65.50;38.80;;;;;;;;;;4990185;28;20041;-65
2021/07/18 11:14:35;;;;;;;59.08;34.38;;;;;;;;;;4990851;28;20121;-65
2021/07/18 11:17:02;;;;;;;65.53;38.05;;;;;;;;;;4958930;28;20444;-65
2021/07/18 11:19:39;;;;;;;61.47;37.53;;;;;;;;;;4991592;28;20018;-65
2021/07/18 11:22:08;;;;;;;52.47;34.35;;;;;;;;;;4993441;28;20092;-65
2021/07/18 11:24:55;;;;;;;43.47;30.98;;;;;;;;;;4990660;28;20109;-65
2021/07/18 11:27:24;;;;;;;41.78;28.65;;;;;;;;;;4984821;28;20034;-65
2021/07/18 11:29:49;;;;;;;32.80;25.13;;;;;;;;;;4990046;28;20038;-66
2021/07/18 11:32:18;;;;;;;30.08;23.30;;;;;;;;;;4973653;28;20439;-65
2021/07/18 11:34:46;;;;;;;23.10;20.83;;;;;;;;;;4991406;28;20547;-61
2021/07/18 11:37:12;;;;;;;22.70;20.38;;;;;;;;;;4993471;28;20105;-62
2021/07/18 11:39:37;;;;;;;21.80;19.88;;;;;;;;;;4990985;28;20434;-62
2021/07/18 11:42:03;;;;;;;20.02;18.05;;;;;;;;;;4991220;28;20042;-71
2021/07/18 11:44:29;;;;;;;18.08;16.33;;;;;;;;;;4991112;28;20121;-65
2021/07/18 11:46:56;;;;;;;18.33;16.48;;;;;;;;;;4991346;28;20077;-66
2021/07/18 11:49:24;;;;;;;17.02;15.65;;;;;;;;;;4991490;28;20027;-72
2021/07/18 11:51:51;;;;;;;16.95;15.48;;;;;;;;;;4976104;28;20061;-70
2021/07/18 11:54:16;;;;;;;17.63;16.02;;;;;;;;;;4990670;28;20034;-68
2021/07/18 11:56:42;;;;;;;24.48;16.92;;;;;;;;;;4990576;28;20061;-68
2021/07/18 11:59:12;;;;;;;18.65;17.13;;;;;;;;;;4991276;28;20105;-71
2021/07/18 12:01:39;;;;;;;18.50;17.00;;;;;;;;;;4990814;28;20059;-68
2021/07/18 12:04:05;;;;;;;20.23;18.45;;;;;;;;;;4992334;28;20441;-69
2021/07/18 12:06:31;;;;;;;19.92;18.20;;;;;;;;;;4991483;28;20141;-73
2021/07/18 12:09:09;;;;;;;19.20;17.48;;;;;;;;;;4992864;28;20100;-68
2021/07/18 12:11:36;;;;;;;21.10;19.00;;;;;;;;;;4974154;28;20035;-64
2021/07/18 12:14:01;;;;;;;21.30;19.30;;;;;;;;;;4989274;28;20042;-68
2021/07/18 12:16:27;;;;;;;20.35;18.52;;;;;;;;;;4990738;28;20076;-68
2021/07/18 12:18:53;;;;;;;19.25;17.35;;;;;;;;;;4992861;28;20057;-68
2021/07/18 12:21:20;;;;;;;19.15;17.40;;;;;;;;;;4990692;28;20034;-68
2021/07/18 12:24:06;;;;;;;18.85;17.25;;;;;;;;;;4989916;28;20026;-67
2021/07/18 12:26:31;;;;;;;18.08;16.45;;;;;;;;;;4961109;28;20506;-68
2021/07/18 12:29:03;;;;;;;19.00;17.27;;;;;;;;;;4990431;28;20173;-68
2021/07/18 12:31:29;;;;;;;18.65;16.95;;;;;;;;;;4990533;28;20277;-67
2021/07/18 12:33:54;;;;;;;16.77;15.27;;;;;;;;;;4991902;28;20011;-68
2021/07/18 12:36:20;;;;;;;17.83;16.48;;;;;;;;;;4972992;28;20038;-67
2021/07/18 12:38:45;;;;;;;15.60;14.33;;;;;;;;;;4990576;28;20034;-68
2021/07/18 12:41:10;;;;;;;15.50;14.10;;;;;;;;;;4993947;28;20603;-68
2021/07/18 12:43:38;;;;;;;17.27;15.48;;;;;;;;;;4985147;28;20151;-68
2021/07/18 12:46:03;;;;;;;16.35;14.80;;;;;;;;;;4992099;28;20116;-66
2021/07/18 12:48:28;;;;;;;16.20;14.83;;;;;;;;;;4990087;28;20070;-70
2021/07/18 12:50:53;;;;;;;15.77;14.50;;;;;;;;;;4990279;28;20719;-67
2021/07/18 12:53:19;;;;;;;14.77;13.70;;;;;;;;;;4989684;28;20034;-74
2021/07/18 12:55:49;;;;;;;16.33;14.90;;;;;;;;;;4989424;28;20129;-73
2021/07/18 12:58:16;;;;;;;14.32;13.10;;;;;;;;;;5004073;28;20533;-68
2021/07/18 13:00:42;;;;;;;16.05;14.80;;;;;;;;;;5010297;28;20050;-67
2021/07/18 13:03:12;;;;;;;14.75;13.30;;;;;;;;;;5009625;28;20513;-71
2021/07/18 13:05:37;;;;;;;16.90;15.32;;;;;;;;;;5009722;28;20077;-74
2021/07/18 13:08:03;;;;;;;14.88;13.63;;;;;;;;;;5009394;28;20488;-67
2021/07/18 13:10:35;;;;;;;15.30;14.20;;;;;;;;;;5002883;28;20105;-67
2021/07/18 13:13:00;;;;;;;15.25;14.10;;;;;;;;;;4990976;28;20022;-64
2021/07/18 13:15:26;;;;;;;14.18;13.18;;;;;;;;;;4989741;28;20042;-64
2021/07/18 13:17:55;;;;;;;15.77;14.38;;;;;;;;;;4989748;28;20043;-64
2021/07/18 13:20:21;;;;;;;14.43;13.23;;;;;;;;;;4989641;28;20038;-64
2021/07/18 13:22:46;;;;;;;15.05;13.85;;;;;;;;;;4989186;28;20035;-66
2021/07/18 13:25:25;;;;;;;15.20;13.90;;;;;;;;;;4990991;28;20570;-72
2021/07/18 13:27:51;;;;;;;14.30;12.82;;;;;;;;;;4989382;28;20279;-70
2021/07/18 13:30:17;;;;;;;14.00;13.00;;;;;;;;;;5009011;28;20026;-71
2021/07/18 13:32:44;;;;;;;14.23;13.00;;;;;;;;;;5008701;28;20041;-68
2021/07/18 13:35:10;;;;;;;13.35;12.18;;;;;;;;;;5008914;28;20132;-66
2021/07/18 13:37:35;;;;;;;13.20;12.10;;;;;;;;;;5008707;28;20010;-72
2021/07/18 13:40:01;;;;;;;14.43;13.17;;;;;;;;;;5009005;28;20072;-66
2021/07/18 13:42:30;;;;;;;13.68;12.45;;;;;;;;;;4988403;28;20057;-69
2021/07/18 13:44:56;;;;;;;14.40;13.30;;;;;;;;;;4988947;28;20031;-68
2021/07/18 13:47:21;;;;;;;13.90;12.77;;;;;;;;;;4989099;28;20399;-66
2021/07/18 13:49:46;;;;;;;12.30;11.30;;;;;;;;;;4988977;28;20913;-67
2021/07/18 13:52:14;;;;;;;12.98;11.98;;;;;;;;;;4989635;28;20018;-66
2021/07/18 13:54:40;;;;;;;11.60;10.80;;;;;;;;;;4988809;28;20109;-66
2021/07/18 13:57:05;;;;;;;11.43;10.50;;;;;;;;;;4991431;28;20084;-66
2021/07/18 13:59:30;;;;;;;11.07;10.07;;;;;;;;;;4962353;28;20361;-68
2021/07/18 14:01:55;;;;;;;10.63;9.77;;;;;;;;;;4969482;28;20142;-67
2021/07/18 14:04:22;;;;;;;11.82;10.73;;;;;;;;;;4968924;28;20381;-68
2021/07/18 14:06:47;;;;;;;11.77;10.63;;;;;;;;;;4971280;28;20107;-69
2021/07/18 14:09:12;;;;;;;9.87;8.97;;;;;;;;;;4969609;28;20479;-67
2021/07/18 14:11:37;;;;;;;9.40;8.70;;;;;;;;;;4981706;28;20476;-66
2021/07/18 14:14:03;;;;;;;10.60;9.65;;;;;;;;;;4988155;28;20759;-65
2021/07/18 14:16:28;;;;;;;9.75;8.95;;;;;;;;;;4988478;28;20641;-67
2021/07/18 14:18:53;;;;;;;8.73;8.03;;;;;;;;;;4990088;28;20018;-69